Weather observations for the past three days for
Platteville Municipal Airport
Metric (Imperial)
Date Time (cdt) Wind (kph) Vis. (km) Weather Sky Cond. Temperature (ºC) Relative Humidity Wind Chill (°C) Heat Index (°C) Pressure Precipitation (cm)
Air Dwpt 6 hour altimeter (cm) sea level (mb) 1 hr 3 hr 6 hr
Max. Min.
03 21:35 Calm 16.09 Fair CLR 15.4 -2 30% 75.44 0.0
03 21:15 Calm 16.09 Fair CLR 15.9 -2 29% 75.44 0.0
03 20:55 W 7 16.09 Fair CLR 15.8 -1.7 30% 75.41 0.0
03 20:35 W 6 16.09 Fair CLR 17.1 -2.1 27% 75.41 0.0
03 20:15 NW 7 16.09 Fair CLR 17.7 -2 26% 75.41 0.0
03 19:55 W 7 16.09 Fair CLR 17.9 -1.5 27% 75.39 0.0
03 19:35 W 9 16.09 Fair CLR 19.4 -1.7 24% 75.36 0.0
03 19:15 W 13 16.09 Fair CLR 20.7 -2.5 21% 75.36 0.0
03 18:55 W 15 G 30 16.09 Fair CLR 21.5 -2.8 23 18 19% 75.36 0.0
03 18:35 W 19 16.09 Partly Cloudy SCT085 22.1 -1.8 20% 75.34 0.0
03 18:15 W 17 G 30 16.09 Partly Cloudy SCT085 22.7 -0.7 21% 75.34 0.0
03 17:55 NW 19 G 31 16.09 Fair CLR 22.8 -0.3 22% 75.34 0.0
03 17:35 W 11 16.09 Fair CLR 22.7 -0.1 22% 75.34 0.0
03 17:15 W 28 G 35 16.09 Fair CLR 22.7 -1.3 20% 75.36 0.0
03 16:55 W 26 G 35 16.09 Fair CLR 22.8 -0.6 21% 75.36 0.0
03 16:35 W 20 G 31 16.09 Fair CLR 22.4 -0.1 22% 75.36 0.0
03 16:15 W 22 G 31 16.09 Fair CLR 22.5 -0.1 22% 75.36 0.0
03 15:55 W 20 G 39 16.09 Fair CLR 22.4 0.5 23% 75.36 0.0
03 15:35 SW 22 G 33 16.09 Fair CLR 22.1 1 25% 75.39 0.0
03 15:15 SW 24 G 37 16.09 Fair CLR 21.4 0.5 25% 75.44 0.0
03 14:55 W 20 G 39 16.09 Fair CLR 21.1 1.3 27% 75.44 0.0
03 14:35 SW 22 G 30 16.09 Fair CLR 20.5 0.9 27% 75.46 0.0
03 14:15 SW 17 G 35 16.09 Fair CLR 20 1.2 29% 75.49 0.0
03 13:35 SW 28 G 41 16.09 Fair CLR 19 0.6 29% 75.54 0.0
03 13:15 SW 33 16.09 Fair and Breezy CLR 19 1.4 31% 75.54 0.0
03 12:55 SW 33 G 44 16.09 Fair and Breezy CLR 18 1.2 18 8.3 33% 75.57 0.0 0.03
03 12:35 SW 31 G 43 16.09 Fair CLR 17.5 1.2 34% 75.57 0.0
03 12:15 SW 30 G 44 16.09 Fair CLR 16.9 0.8 34% 75.59 0.0
03 11:55 SW 33 G 43 16.09 Fair and Breezy CLR 16.5 0.4 34% 75.62 0.0
03 11:35 SW 35 G 44 16.09 Fair and Breezy CLR 16 1.1 37% 75.64 0.0
03 11:15 SW 37 G 46 16.09 Partly Cloudy and Breezy SCT110 15.6 0.4 36% 75.64 0.0
03 10:55 SW 33 G 48 16.09 Partly Cloudy and Breezy SCT110 15.3 1.4 39% 75.64 0.0
03 10:35 S 33 G 46 16.09 Partly Cloudy and Breezy SCT100 SCT110 14.1 1.6 43% 75.67 0.0
03 10:15 S 44 G 52 16.09 Fair and Windy CLR 14.1 1.2 42% 75.69 0.0
03 09:55 S 30 G 41 16.09 Fair CLR 12.7 4.1 56% 75.69 0.0 0.03
03 09:35 S 26 16.09 Partly Cloudy SCT080 SCT090 11.9 4.6 61% 75.72 0.0
03 09:15 S 22 16.09 Partly Cloudy SCT085 SCT100 11.1 4.5 64% 75.77 0.0
03 08:55 S 24 16.09 Mostly Cloudy SCT065 BKN085 BKN100 9.1 3.1 66% 6 75.74 0.0
03 08:35 S 31 G 43 16.09 Overcast OVC065 8.5 3 69% 5 75.74 0.0
03 08:15 S 31 16.09 Overcast SCT030 BKN060 OVC075 8.4 4.2 75% 5 75.74 0.0
03 07:35 S 28 16.09 Overcast SCT031 BKN070 OVC080 9.1 3.5 68% 6 75.82 0.0
03 07:15 S 19 16.09 Overcast SCT031 BKN060 OVC080 9.8 4 67% 8 75.87 0.0
03 06:55 SW 22 G 31 16.09 Overcast SCT060 SCT070 OVC080 9.7 4 10.1 6.3 68% 7 75.9 0.0
03 06:35 SW 26 G 37 16.09 Overcast SCT032 SCT050 OVC090 9.4 4.7 73% 6 75.87 0.0
03 06:15 SW 22 11.27 Overcast SCT029 SCT037 OVC060 9.3 5.4 77% 7 75.9 0.0
03 05:55 SW 26 G 33 16.09 Overcast BKN060 OVC070 10 3.8 66% 7 75.92 0.0
03 05:35 SW 22 16.09 Partly Cloudy SCT080 9.6 0.6 54% 7 75.9 0.0
03 05:15 SW 19 16.09 Fair CLR 9.3 -0.7 50% 7 75.9 0.0
03 04:55 SW 19 16.09 Fair CLR 9.5 -1.9 45% 7 75.92 0.0
03 04:35 SW 17 16.09 Fair CLR 8.8 -1.9 47% 7 75.95 0.0
03 04:15 S 17 16.09 Fair CLR 8 -1.1 53% 6 75.95 0.0
03 03:55 S 13 16.09 Fair CLR 7.8 -1.6 52% 6 75.95 0.0
03 03:35 S 13 16.09 Fair CLR 8.1 -2 49% 6 75.95 0.0
03 03:15 S 17 16.09 Fair CLR 8.5 -2.1 48% 6 75.95 0.0
03 02:55 S 15 16.09 Partly Cloudy SCT110 8.1 -1.9 50% 6 75.95 0.0
03 02:35 S 15 16.09 Fair CLR 8 -1.7 51% 6 75.97 0.0
03 02:15 S 15 16.09 Fair CLR 7.5 -1.7 52% 5 75.97 0.0
03 01:55 S 15 16.09 Fair CLR 6.6 -1.5 57% 4 76 0.0
03 01:35 S 11 16.09 Fair CLR 6.4 -1.5 57% 4 76.02 0.0
03 01:15 S 11 16.09 Fair CLR 6.5 -1.7 56% 5 76.02 0.0
03 00:50 S 13 16.09 Fair CLR 6.5 -2 14.5 6.5 55% 4 76.05 0.0
03 00:35 S 15 16.09 Fair CLR 6.5 -2.2 54% 4 76.05 0.0
03 00:15 S 13 16.09 Fair CLR 6.5 -2.5 53% 4 76.05 0.0
02 23:55 S 13 16.09 Fair CLR 6.6 -2.6 52% 4 76.05 0.0
02 23:35 S 11 16.09 Fair CLR 7 -2.7 50% 5 76.07 0.0
02 23:15 S 13 16.09 Fair CLR 7.2 -2.7 50% 5 76.07 0.0
02 22:55 S 11 16.09 Fair CLR 7 -3 49% 5 76.1 0.0
02 22:35 S 13 16.09 Fair CLR 7.1 -3 49% 5 76.1 0.0
02 22:15 S 13 16.09 Fair CLR 7.6 -3.2 47% 6 76.12 0.0
02 21:55 S 13 16.09 Fair CLR 8 -3.4 45% 6 76.12 0.0
02 21:35 S 13 16.09 Fair CLR 8.2 -4.1 42% 6 76.12 0.0
02 21:15 SW 13 16.09 Fair CLR 8.9 -5.2 37% 7 76.12 0.0
02 20:55 SW 13 16.09 Fair CLR 9 -5.7 35% 7 76.12 0.0
02 20:35 SW 11 16.09 Fair CLR 9.4 -6 33% 8 76.12 0.0
02 20:15 SW 13 16.09 Fair CLR 10.2 -6.5 31% 76.12 0.0
02 19:55 SW 15 16.09 Fair CLR 11.6 -6.8 27% 76.12 0.0
02 19:35 SW 19 16.09 Fair CLR 13.4 -8.5 21% 76.12 0.0
02 19:15 SW 17 16.09 Fair CLR 14 -8.1 21% 76.12 0.0
02 18:35 W 28 G 33 16.09 Fair CLR 14.8 -8.8 19% 76.17 0.0
02 18:15 SW 22 G 35 16.09 Fair CLR 15.2 -9.4 18% 76.17 0.0
02 17:55 W 28 G 33 16.09 Partly Cloudy SCT085 15.5 -9.3 17% 76.17 0.0
02 17:35 SW 24 G 37 16.09 Fair CLR 15.5 -8.8 18% 76.2 0.0
02 17:15 W 24 G 30 16.09 Fair CLR 15.6 -8.4 18% 76.2 0.0
02 16:55 W 17 G 35 16.09 Partly Cloudy SCT085 15.6 -8.6 18% 76.2 0.0
02 16:35 W 28 G 39 16.09 Partly Cloudy SCT085 15.5 -8.8 18% 76.23 0.0
02 16:15 W 15 G 41 16.09 Partly Cloudy SCT085 14.6 -8.7 19% 76.23 0.0
02 15:35 W 24 G 37 16.09 Mostly Cloudy BKN085 15.3 -7.5 20% 76.28 0.0
02 15:15 W 13 G 33 16.09 Mostly Cloudy BKN085 14.7 -8.8 19% 76.3 0.0
02 14:55 W 19 G 30 16.09 Mostly Cloudy BKN085 15.3 -8.2 19% 76.33 0.0
02 14:35 NW 17 G 35 16.09 Mostly Cloudy BKN075 14.1 -7.5 22% 76.33 0.0
02 14:15 W 22 G 37 16.09 Overcast BKN075 OVC090 14.3 -7.8 21% 76.35 0.0
02 13:35 W 17 G 39 16.09 Mostly Cloudy BKN085 14.3 -6.8 23% 76.38 0.0
02 13:15 W 11 16.09 Mostly Cloudy BKN080 13.1 -7.7 23% 76.4 0.0
02 12:55 W 17 G 26 16.09 Mostly Cloudy BKN080 12.9 -7.5 13.9 0.5 24% 76.4 0.0
02 12:35 W 13 G 35 16.09 Mostly Cloudy BKN075 13.8 -7.6 22% 76.43 0.0
02 12:15 W 20 G 30 16.09 Mostly Cloudy BKN075 12.6 -6.1 27% 76.45 0.0
02 11:55 W 9 G 30 16.09 Partly Cloudy SCT065 11.3 -6.9 28% 76.45 0.0
02 11:35 NW 17 G 30 16.09 Fair CLR 12.3 -5.8 28% 76.45 0.0
02 11:15 NW 22 16.09 Fair CLR 12 -5.5 29% 76.48 0.0
02 10:55 NW 17 G 30 16.09 Fair CLR 11.7 -5 31% 76.5 0.0
02 10:35 W 15 16.09 Fair CLR 11 -3.6 36% 76.5 0.0
02 10:15 W 17 16.09 Fair CLR 10.3 -1.2 45% 76.5 0.0
02 09:55 W 17 16.09 Fair CLR 9.4 -1.1 48% 7 76.5 0.0
02 09:35 W 15 16.09 Mostly Cloudy BKN090 7.6 -0.1 59% 5 76.53 0.0
02 09:15 SW 9 16.09 Overcast OVC090 7.4 0.6 62% 6 76.53 0.0
02 08:55 SW 11 16.09 Overcast OVC090 6.2 1 70% 4 76.53 0.0
02 08:30 Calm 16.09 Overcast OVC090 4.8 0.8 76% 76.53 0.0
02 07:55 Calm 16.09 Overcast OVC090 4 0.8 80% 76.53 0.0
02 07:35 Calm 16.09 Mostly Cloudy BKN090 3.5 0.9 83% 76.53 0.0
02 07:15 Calm 16.09 Fair CLR 1.9 0.1 88% 76.5 0.0
02 06:55 Calm 16.09 Fair CLR 0.6 -0.9 2.7 0 90% 76.5 0.0
02 06:35 Calm 11.27 Fair CLR 0 -1.1 92% 76.5 0.0
02 06:15 Calm 16.09 Fair CLR 0 -1.4 90% 76.48 0.0
02 05:55 Calm 16.09 Fair CLR 0.4 -1.1 90% 76.48 0.0
02 05:35 Calm 16.09 Fair CLR 0.2 -1.5 89% 76.48 0.0
02 05:15 Calm 16.09 Fair CLR 1.1 -0.8 87% 76.48 0.0
02 04:55 Calm 16.09 Fair CLR 1.3 -1.1 84% 76.48 0.0
02 04:35 Calm 16.09 Fair CLR 1 -1.2 85% 76.45 0.0
02 04:15 Calm 16.09 Fair CLR 1 -2 81% 76.45 0.0
02 03:55 Calm 16.09 Fair CLR 1.8 -1.6 78% 76.45 0.0
02 03:35 Calm 16.09 Fair CLR 1.8 -1.9 77% 76.48 0.0
02 03:15 Calm 16.09 Fair CLR 0.8 -2.5 79% 76.48 0.0
02 02:55 Calm 16.09 Fair CLR 0.6 -2.5 80% 76.45 0.0
02 02:35 Calm 16.09 Fair CLR 2 -2.8 71% 76.48 0.0
02 02:15 Calm 16.09 Fair CLR 2.5 -2.5 70% 76.48 0.0
02 01:55 Calm 16.09 Fair CLR 2.6 -2.8 68% 76.48 0.0
02 01:35 Calm 16.09 Fair CLR 2.6 -2.9 67% 76.5 0.0
02 01:15 Calm 16.09 Fair CLR 2.6 -3 67% 76.5 0.0
02 00:55 Calm 16.09 Fair CLR 2.5 -3.4 10.6 1.7 65% 76.5 0.0
02 00:35 Calm 16.09 Fair CLR 2.2 -3.5 66% 76.48 0.0
02 00:15 SE 7 16.09 Fair CLR 2.3 -4 63% 0 76.48 0.0
01 23:55 SE 9 16.09 Fair CLR 3.4 -4.2 58% 1 76.48 0.0
01 23:35 E 9 16.09 Fair CLR 3.3 -4.5 57% 1 76.45 0.0
01 23:15 E 9 16.09 Fair CLR 3.1 -4.5 58% 1 76.48 0.0
01 22:55 E 13 16.09 Fair CLR 3.4 -5 55% 0 76.48 0.0
01 22:35 E 11 16.09 Fair CLR 4 -5 52% 2 76.45 0.0
01 22:15 E 11 16.09 Fair CLR 4.8 -5.3 48% 3 76.43 0.0
01 21:55 E 11 16.09 Fair CLR 4.6 -4.9 51% 2 76.43 0.0
01 21:35 NE 11 16.09 Fair CLR 6 -6.4 41% 4 76.4 0.0
01 21:15 NE 11 16.09 Fair CLR 6.2 -6.2 41% 4 76.38 0.0
01 20:55 NE 11 16.09 Fair CLR 6.5 -6.1 40% 5 76.35 0.0
01 20:35 Calm 16.09 Fair CLR 7 -6.4 38% 76.35 0.0
01 20:15 Calm 16.09 Fair CLR 6.8 -5 43% 76.33 0.0
01 19:55 Calm 16.09 Partly Cloudy SCT090 7.5 -5 41% 76.3 0.0
01 19:35 N 13 16.09 Partly Cloudy SCT090 8.9 -6.9 32% 7 76.3 0.0
01 19:15 N 13 4.83 Mostly Cloudy BKN090 9.8 -7.5 29% 8 76.28 0.0
01 18:55 N 17 16.09 Partly Cloudy SCT090 10.8 -9.2 12.1 9.6 24% 76.28 0.0
01 18:35 N 15 16.09 Mostly Cloudy BKN090 10.6 -8.5 25% 76.25 0.0
01 18:15 NW 15 16.09 Mostly Cloudy SCT070 BKN090 11.8 -7.9 25% 76.25 0.0
01 17:55 NE 13 16.09 Mostly Cloudy SCT070 BKN090 11.3 -8.2 25% 76.25 0.0
01 17:35 NW 9 16.09 Mostly Cloudy SCT080 BKN090 11.1 -7.2 27% 76.28 0.0
01 17:15 NW 13 16.09 Overcast SCT070 OVC090 11.1 -6.9 28% 76.28 0.0
01 16:55 N 13 16.09 Mostly Cloudy SCT060 BKN080 BKN090 10.9 -7.7 27% 76.25 0.0
01 16:35 N 22 G 33 16.09 Mostly Cloudy BKN060 BKN070 BKN090 11.2 -6.2 29% 76.25 0.0
01 16:15 W 7 16.09 Mostly Cloudy SCT060 SCT070 BKN090 11.9 -6.3 28% 76.25 0.0
01 15:55 Calm 16.09 Mostly Cloudy SCT060 SCT075 BKN090 10.9 -5.6 31% 76.28 0.0
01 15:30 N 15 16.09 Overcast BKN060 BKN075 OVC090 11.2 -4.8 33% 76.28 0.0
01 15:15 NW 13 16.09 Mostly Cloudy BKN060 BKN075 BKN090 10.5 -6 31% 76.28 0.0
01 14:55 N 9 16.09 Mostly Cloudy BKN060 BKN075 BKN090 10.3 -6.1 31% 76.28 0.0
01 14:35 Calm 16.09 Overcast BKN060 BKN075 OVC085 10 -5.9 32% 76.3 0.0
01 14:15 W 13 16.09 Overcast BKN060 BKN070 OVC080 10.3 -5.3 33% 76.28 0.0
01 13:55 N 13 16.09 Overcast BKN060 OVC080 10.1 -6.4 31% 76.3 0.0
01 13:35 NW 11 16.09 Overcast SCT050 SCT070 OVC080 10 -6.1 32% 9 76.28 0.0
01 13:15 NW 9 16.09 Overcast SCT055 OVC080 9.6 -5.9 33% 9 76.28 0.0
01 12:55 Calm 16.09 Overcast BKN060 OVC075 9.9 -5.1 10.3 1.9 35% 76.28 0.0
01 12:35 Calm 16.09 Overcast SCT050 BKN060 OVC075 9.5 -5.9 34% 76.28 0.0
01 12:15 N 9 16.09 Overcast OVC055 9.6 -5.7 34% 9 76.28 0.0
01 11:55 N 13 16.09 Mostly Cloudy SCT050 BKN060 9.9 -5.7 33% 8 76.28 0.0
01 11:35 NW 7 16.09 Mostly Cloudy BKN050 BKN055 9.2 -5.3 36% 8 76.3 0.0
01 11:15 NW 9 16.09 Partly Cloudy SCT050 SCT090 9.8 -4.7 36% 9 76.3 0.0
01 10:55 NW 9 16.09 Mostly Cloudy SCT050 BKN090 8.9 -6 35% 8 76.3 0.0
01 10:35 N 13 16.09 Partly Cloudy SCT090 8.7 -6.1 35% 7 76.3 0.0
01 10:15 Calm 16.09 Partly Cloudy SCT100 8.4 -6.2 35% 76.33 0.0
01 09:55 Calm 16.09 Partly Cloudy SCT100 8.1 -4.1 42% 76.33 0.0
01 09:35 Calm 16.09 Partly Cloudy SCT080 7.7 -3.7 45% 76.33 0.0
01 09:15 Calm 16.09 Partly Cloudy SCT080 7.5 -3.3 47% 76.33 0.0
01 08:55 Calm 16.09 Partly Cloudy SCT110 6.8 -2 54% 76.33 0.0
01 08:35 Calm 16.09 Partly Cloudy SCT110 6.3 -1.6 57% 76.3 0.0
01 08:15 Calm 16.09 Partly Cloudy SCT080 5.6 -2 58% 76.3 0.0
01 07:55 Calm 16.09 Overcast OVC080 4.5 -2.3 62% 76.3 0.0
01 07:35 Calm 16.09 Mostly Cloudy BKN080 4.1 -2.2 64% 76.3 0.0
01 07:15 Calm 16.09 Fair CLR 3 -2.8 66% 76.28 0.0
01 06:55 Calm 16.09 Fair CLR 1.7 -2.8 4.5 0.6 72% 76.28 0.0
01 06:35 Calm 16.09 Partly Cloudy SCT080 1.3 -3.2 72% 76.25 0.0
01 06:15 Calm 16.09 Overcast OVC080 0.7 -3 77% 76.25 0.0
01 05:55 Calm 16.09 Overcast OVC080 0.7 -3.3 75% 76.25 0.0
01 05:35 Calm 16.09 Mostly Cloudy BKN080 1.5 -4 67% 76.23 0.0
01 05:15 Calm 16.09 Partly Cloudy SCT080 1.4 -4.2 67% 76.23 0.0
01 04:55 Calm 16.09 Fair CLR 1.3 -3.7 70% 76.25 0.0
01 04:35 Calm 16.09 Fair CLR 1.9 -4.1 65% 76.25 0.0
01 04:15 Calm 16.09 Fair CLR 1.5 -3.8 68% 76.25 0.0
01 03:55 Calm 16.09 Fair CLR 2.5 -4.2 62% 76.23 0.0
01 03:35 Calm 16.09 Fair CLR 1.8 -3.6 68% 76.23 0.0
01 03:15 Calm 16.09 Fair CLR 2 -3.5 67% 76.23 0.0
01 02:55 Calm 16.09 Fair CLR 1.5 -2.8 73% 76.23 0.0
01 02:35 Calm 16.09 Fair CLR 2 -3.1 69% 76.23 0.0
01 02:15 N 9 16.09 Fair CLR 2.9 -3.2 65% 1 76.23 0.0
01 01:55 Calm 16.09 Fair CLR 3.1 -3.4 63% 76.23 0.0
01 01:35 N 9 16.09 Fair CLR 3.8 -3.4 60% 2 76.23 0.0
01 01:15 N 9 16.09 Fair CLR 4.5 -3.4 57% 3 76.23 0.0
01 00:55 Calm 16.09 Fair CLR 4.6 -2.1 9.6 4.6 62% 76.23 0.0
01 00:35 N 13 16.09 Partly Cloudy SCT055 5.7 -2.5 56% 3 76.2 0.0
01 00:15 N 11 16.09 Mostly Cloudy SCT055 BKN090 6.4 -1.9 56% 4 76.2 0.0
30 23:55 N 13 16.09 Overcast SCT032 SCT041 OVC090 7 -1.3 56% 5 76.2 0.0
30 23:35 NW 20 16.09 Overcast SCT027 BKN033 OVC050 7.1 -1.3 56% 4 76.2 0.0
30 23:15 N 17 16.09 Overcast SCT025 BKN050 OVC060 7.4 -0.9 56% 5 76.17 0.0
30 22:55 N 17 16.09 Mostly Cloudy BKN050 BKN070 BKN085 7.6 -1.2 54% 5 76.17 0.0
30 22:35 N 11 16.09 Overcast OVC050 7.8 -1.6 52% 6 76.17 0.0
30 22:15 N 19 16.09 Overcast SCT048 OVC060 8 -1.5 51% 5 76.17 0.0
Date Time (cdt) Wind (kph) Vis. (km) Weather Sky Cond. Air Dwpt Max. Min. Relative Humidity Wind Chill (°C) Heat Index (°C) altimeter (cm) sea level (mb) 1 hr 3 hr 6 hr
6 hour
Temperature (ºC) Pressure Precipitation (cm)